Time;durP1;ratioP1;P1;durP2;ratioP2;P2;SDS_P1;SDS_P2;PMS_P1;PMS_P2;Temp;Humidity;BMP_temperature;BMP_pressure;BME280_temperature;BME280_humidity;BME280_pressure;Samples;Min_cycle;Max_cycle;Signal;HPM_P1;HPM_P2
2022/09/09 00:00:58;;;;;;;;;;;14.30;99.90;;;;;;5111443;27;19975;-93
2022/09/09 00:03:45;;;;;;;;;;;13.80;99.90;;;;;;5108308;27;19930;-90
2022/09/09 00:06:18;;;;;;;;;;;14.10;99.90;;;;;;5124347;27;20350;-90
2022/09/09 00:08:47;;;;;;;;;;;13.20;99.90;;;;;;5107590;27;20389;-90
2022/09/09 00:11:16;;;;;;;;;;;13.80;99.90;;;;;;5123648;27;20041;-92
2022/09/09 00:13:48;;;;;;;;;;;13.00;99.90;;;;;;5106337;27;19972;-91
2022/09/09 00:16:21;;;;;;;;;;;13.70;99.90;;;;;;5103811;27;19923;-91
2022/09/09 00:19:06;;;;;;;;;;;13.90;99.90;;;;;;5121030;27;19934;-92
2022/09/09 00:21:38;;;;;;;;;;;13.80;99.90;;;;;;5120910;27;19949;-90
2022/09/09 00:24:13;;;;;;;;;;;13.70;99.90;;;;;;5120086;27;19923;-91
2022/09/09 00:26:43;;;;;;;;;;;13.70;99.90;;;;;;5104233;27;19979;-90
2022/09/09 00:29:14;;;;;;;;;;;13.60;99.90;;;;;;5120662;27;19923;-90
2022/09/09 00:31:42;;;;;;;;;;;13.60;99.90;;;;;;5120651;27;19927;-90
2022/09/09 00:34:12;;;;;;;;;;;13.60;99.90;;;;;;5104298;27;19927;-90
2022/09/09 00:36:38;;;;;;;;;;;13.60;99.90;;;;;;5126272;27;19927;-90
2022/09/09 00:39:04;;;;;;;;;;;13.60;99.90;;;;;;5115070;27;19930;-90
2022/09/09 00:41:32;;;;;;;;;;;13.50;99.90;;;;;;5115260;27;20287;-89
2022/09/09 00:44:02;;;;;;;;;;;13.60;99.90;;;;;;5132109;27;19923;-91
2022/09/09 00:46:54;;;;;;;;;;;13.60;99.90;;;;;;5119173;27;19923;-91
2022/09/09 00:49:25;;;;;;;;;;;13.80;99.90;;;;;;5133616;27;20394;-91
2022/09/09 00:52:09;;;;;;;;;;;13.60;99.90;;;;;;5120380;27;19946;-92
2022/09/09 00:54:59;;;;;;;;;;;13.60;99.90;;;;;;5120918;27;19931;-92
2022/09/09 00:57:24;;;;;;;;;;;13.60;99.90;;;;;;5077976;27;19927;-92
2022/09/09 00:59:58;;;;;;;;;;;12.70;99.90;;;;;;5172583;27;19923;-91
2022/09/09 01:02:30;;;;;;;;;;;12.30;99.90;;;;;;5139401;27;20389;-92
2022/09/09 01:05:02;;;;;;;;;;;13.50;99.90;;;;;;5122006;27;19922;-92
2022/09/09 01:07:27;;;;;;;;;;;13.50;99.90;;;;;;5116798;27;19923;-93
2022/09/09 01:09:59;;;;;;;;;;;13.50;99.90;;;;;;5103122;27;19923;-92
2022/09/09 01:12:26;;;;;;;;;;;13.60;99.90;;;;;;5103561;27;20034;-92
2022/09/09 01:14:58;;;;;;;;;;;12.40;99.90;;;;;;5103225;27;20012;-91
2022/09/09 01:17:44;;;;;;;;;;;14.30;99.90;;;;;;5119901;27;19927;-91
2022/09/09 01:20:21;;;;;;;;;;;13.40;99.90;;;;;;5101882;27;20025;-90
2022/09/09 01:22:50;;;;;;;;;;;13.50;99.90;;;;;;5119836;27;19923;-91
2022/09/09 01:25:20;;;;;;;;;;;13.40;99.90;;;;;;5120285;27;19923;-92
2022/09/09 01:27:48;;;;;;;;;;;13.40;99.90;;;;;;5119510;27;19936;-92
2022/09/09 01:30:15;;;;;;;;;;;13.60;99.90;;;;;;5119858;27;19972;-92
2022/09/09 01:32:44;;;;;;;;;;;13.30;99.90;;;;;;5102966;27;19927;-93
2022/09/09 01:35:14;;;;;;;;;;;13.30;99.90;;;;;;5102284;27;19927;-93
2022/09/09 01:37:42;;;;;;;;;;;13.60;99.90;;;;;;5121406;27;19912;-93
2022/09/09 01:40:08;;;;;;;;;;;13.50;99.90;;;;;;5127668;27;19923;-91
2022/09/09 01:42:34;;;;;;;;;;;13.50;99.90;;;;;;5102274;27;20331;-92
2022/09/09 01:45:02;;;;;;;;;;;13.50;99.90;;;;;;5102537;27;20011;-92
2022/09/09 01:47:30;;;;;;;;;;;13.40;99.90;;;;;;5101573;27;20301;-92
2022/09/09 01:49:58;;;;;;;;;;;13.50;99.90;;;;;;5102325;27;19927;-91
2022/09/09 01:52:24;;;;;;;;;;;13.50;99.90;;;;;;5118243;27;20281;-91
2022/09/09 01:54:49;;;;;;;;;;;13.60;99.90;;;;;;5102202;27;19927;-92
2022/09/09 01:57:17;;;;;;;;;;;13.60;99.90;;;;;;5101502;27;19951;-92
2022/09/09 01:59:53;;;;;;;;;;;13.60;99.90;;;;;;5119046;27;19948;-92
2022/09/09 02:02:21;;;;;;;;;;;13.60;99.90;;;;;;5118777;27;20025;-92
2022/09/09 02:04:47;;;;;;;;;;;13.90;99.90;;;;;;5101976;27;20286;-91
2022/09/09 02:07:28;;;;;;;;;;;13.70;99.90;;;;;;5101725;27;19930;-92
2022/09/09 02:09:59;;;;;;;;;;;14.10;99.90;;;;;;5119270;27;19973;-91
2022/09/09 02:12:24;;;;;;;;;;;14.00;99.90;;;;;;5102451;27;19930;-91
2022/09/09 02:14:54;;;;;;;;;;;14.10;99.90;;;;;;5121973;27;19923;-92
2022/09/09 02:17:22;;;;;;;;;;;13.60;99.90;;;;;;5102537;27;19927;-92
2022/09/09 02:19:49;;;;;;;;;;;13.90;99.90;;;;;;5103609;27;19978;-90
2022/09/09 02:22:17;;;;;;;;;;;13.90;99.90;;;;;;5108715;27;19930;-91
2022/09/09 02:24:43;;;;;;;;;;;13.90;99.90;;;;;;5104954;27;19937;-92
2022/09/09 02:27:09;;;;;;;;;;;14.00;99.90;;;;;;5119669;27;20019;-94
2022/09/09 02:29:36;;;;;;;;;;;14.00;99.90;;;;;;5102968;27;20010;-93
2022/09/09 02:32:05;;;;;;;;;;;13.90;99.90;;;;;;5103271;27;19934;-93
2022/09/09 02:34:31;;;;;;;;;;;14.10;99.90;;;;;;5102161;27;19933;-92
2022/09/09 02:36:57;;;;;;;;;;;14.00;99.90;;;;;;5102858;27;20033;-89
2022/09/09 02:39:25;;;;;;;;;;;13.90;99.90;;;;;;5101917;27;19927;-89
2022/09/09 02:41:53;;;;;;;;;;;13.90;99.90;;;;;;5102150;27;20363;-89
2022/09/09 02:44:22;;;;;;;;;;;13.90;99.90;;;;;;5102574;27;19923;-89
2022/09/09 02:46:47;;;;;;;;;;;12.70;99.90;;;;;;5101886;27;19934;-90
2022/09/09 02:49:18;;;;;;;;;;;14.00;99.90;;;;;;5118117;27;19930;-90
2022/09/09 02:51:54;;;;;;;;;;;13.40;99.90;;;;;;5101072;27;19923;-89
2022/09/09 02:54:30;;;;;;;;;;;14.10;99.90;;;;;;5152626;27;19923;-89
2022/09/09 02:56:57;;;;;;;;;;;14.00;99.90;;;;;;5101520;27;20362;-89
2022/09/09 02:59:24;;;;;;;;;;;15.20;99.90;;;;;;5101214;27;19931;-89
2022/09/09 03:01:49;;;;;;;;;;;14.10;99.90;;;;;;5118134;27;20017;-90
2022/09/09 03:04:25;;;;;;;;;;;14.10;99.90;;;;;;5117880;27;20017;-92
2022/09/09 03:06:51;;;;;;;;;;;14.10;99.90;;;;;;5102054;27;20022;-89
2022/09/09 03:09:16;;;;;;;;;;;14.10;99.90;;;;;;5100874;27;19963;-91
2022/09/09 03:11:45;;;;;;;;;;;14.10;99.90;;;;;;5117986;27;20001;-90
2022/09/09 03:14:11;;;;;;;;;;;14.30;99.90;;;;;;5118967;27;19930;-90
2022/09/09 03:16:37;;;;;;;;;;;14.10;99.90;;;;;;5117424;27;19923;-90
2022/09/09 03:19:02;;;;;;;;;;;12.70;99.90;;;;;;5117946;27;20244;-90
2022/09/09 03:21:28;;;;;;;;;;;14.40;99.90;;;;;;5100887;27;19923;-91
2022/09/09 03:23:56;;;;;;;;;;;14.30;99.90;;;;;;5101592;27;19934;-92
2022/09/09 03:26:22;;;;;;;;;;;14.40;99.90;;;;;;5101137;27;19926;-91
2022/09/09 03:28:49;;;;;;;;;;;14.30;99.90;;;;;;5101493;27;19923;-90
2022/09/09 03:31:15;;;;;;;;;;;12.60;99.90;;;;;;5101285;27;19923;-92
2022/09/09 03:33:41;;;;;;;;;;;14.30;99.90;;;;;;5101568;27;20005;-92
2022/09/09 03:36:09;;;;;;;;;;;14.70;99.90;;;;;;5101040;27;19923;-91
2022/09/09 03:38:34;;;;;;;;;;;14.20;99.90;;;;;;5118587;27;20030;-90
2022/09/09 03:41:01;;;;;;;;;;;13.40;99.90;;;;;;5101033;27;20021;-90
2022/09/09 03:43:29;;;;;;;;;;;14.20;99.90;;;;;;5117388;27;19931;-91
2022/09/09 03:45:56;;;;;;;;;;;14.40;99.90;;;;;;5104014;27;19927;-90
2022/09/09 03:48:25;;;;;;;;;;;14.20;99.90;;;;;;5124858;27;19983;-90
2022/09/09 03:50:51;;;;;;;;;;;14.10;99.90;;;;;;5101395;27;19961;-90
2022/09/09 03:53:20;;;;;;;;;;;14.10;99.90;;;;;;5101000;27;19985;-90
2022/09/09 03:55:49;;;;;;;;;;;14.20;99.90;;;;;;5100703;27;19927;-90
2022/09/09 03:58:18;;;;;;;;;;;14.40;99.90;;;;;;5100705;27;20346;-91
2022/09/09 04:00:52;;;;;;;;;;;14.20;99.90;;;;;;5103889;27;20272;-89
2022/09/09 04:03:18;;;;;;;;;;;14.20;99.90;;;;;;5104011;27;19931;-90
2022/09/09 04:05:43;;;;;;;;;;;14.20;99.90;;;;;;5103618;27;19923;-89
2022/09/09 04:08:09;;;;;;;;;;;15.10;99.90;;;;;;5104039;27;19981;-89
2022/09/09 04:10:37;;;;;;;;;;;14.20;99.90;;;;;;5104015;27;19930;-91
2022/09/09 04:13:04;;;;;;;;;;;14.20;99.90;;;;;;5121336;27;19923;-91
2022/09/09 04:15:30;;;;;;;;;;;14.20;99.90;;;;;;5120695;27;20386;-90
2022/09/09 04:17:55;;;;;;;;;;;14.10;99.90;;;;;;5121088;27;19923;-90
2022/09/09 04:20:22;;;;;;;;;;;14.10;99.90;;;;;;5103547;27;20389;-91
2022/09/09 04:22:47;;;;;;;;;;;14.10;99.90;;;;;;5103750;27;19970;-89
2022/09/09 04:25:13;;;;;;;;;;;14.10;99.90;;;;;;5120979;27;20003;-90
2022/09/09 04:27:39;;;;;;;;;;;14.20;99.90;;;;;;5103686;27;19923;-90
2022/09/09 04:30:05;;;;;;;;;;;14.20;99.90;;;;;;5103273;27;19927;-90
2022/09/09 04:32:32;;;;;;;;;;;14.10;99.90;;;;;;5102724;27;19930;-90
2022/09/09 04:34:57;;;;;;;;;;;14.10;99.90;;;;;;5121185;27;20358;-90
2022/09/09 04:37:24;;;;;;;;;;;14.10;99.90;;;;;;5103419;27;20021;-91
2022/09/09 04:39:59;;;;;;;;;;;14.30;99.90;;;;;;5103420;27;19949;-91
2022/09/09 04:42:25;;;;;;;;;;;13.60;99.90;;;;;;5137940;27;19924;-90
2022/09/09 04:44:50;;;;;;;;;;;14.20;99.90;;;;;;5119935;27;19923;-90
2022/09/09 04:47:16;;;;;;;;;;;14.10;99.90;;;;;;5103945;27;20013;-91
2022/09/09 04:49:47;;;;;;;;;;;14.40;99.90;;;;;;5103012;27;20275;-90
2022/09/09 04:52:17;;;;;;;;;;;14.20;99.90;;;;;;5119982;27;19927;-90
2022/09/09 04:54:42;;;;;;;;;;;15.70;99.90;;;;;;5136919;27;19927;-90
2022/09/09 04:57:10;;;;;;;;;;;14.10;99.90;;;;;;5120324;27;19930;-90
2022/09/09 04:59:38;;;;;;;;;;;14.00;99.90;;;;;;5119313;27;20390;-91
2022/09/09 05:02:06;;;;;;;;;;;14.30;99.90;;;;;;5120510;27;19930;-91
2022/09/09 05:04:32;;;;;;;;;;;14.00;99.90;;;;;;5103144;27;19923;-90
2022/09/09 05:06:59;;;;;;;;;;;13.90;99.90;;;;;;5104122;27;19951;-91
2022/09/09 05:09:29;;;;;;;;;;;14.10;99.90;;;;;;5103162;27;19931;-90
2022/09/09 05:11:55;;;;;;;;;;;14.00;99.90;;;;;;5103131;27;19923;-90
2022/09/09 05:14:21;;;;;;;;;;;14.00;99.90;;;;;;5103350;27;19930;-92
2022/09/09 05:16:49;;;;;;;;;;;14.10;99.90;;;;;;5106784;27;19923;-93
2022/09/09 05:19:18;;;;;;;;;;;13.90;99.90;;;;;;5125952;27;20028;-93
2022/09/09 05:21:46;;;;;;;;;;;12.40;99.90;;;;;;5114568;27;19927;-94
2022/09/09 05:24:12;;;;;;;;;;;14.20;99.90;;;;;;5110539;27;19994;-94
2022/09/09 05:26:48;;;;;;;;;;;13.90;99.90;;;;;;5115113;27;19970;-95
2022/09/09 05:29:19;;;;;;;;;;;14.20;99.90;;;;;;5120281;27;19962;-94
2022/09/09 05:31:48;;;;;;;;;;;13.90;99.90;;;;;;5117213;27;19927;-94
2022/09/09 05:34:16;;;;;;;;;;;13.90;99.90;;;;;;5117739;27;19932;-94
2022/09/09 05:36:47;;;;;;;;;;;14.30;99.90;;;;;;5117334;27;19990;-94
2022/09/09 05:39:13;;;;;;;;;;;14.80;99.90;;;;;;5118432;27;19923;-93
2022/09/09 05:41:38;;;;;;;;;;;14.20;99.90;;;;;;5115876;27;19972;-94
2022/09/09 05:44:11;;;;;;;;;;;13.90;99.90;;;;;;5119151;27;20009;-94
2022/09/09 05:46:42;;;;;;;;;;;14.00;99.90;;;;;;5120431;27;19933;-93
2022/09/09 05:49:10;;;;;;;;;;;13.90;99.90;;;;;;5129112;27;19927;-93
2022/09/09 05:51:38;;;;;;;;;;;13.90;99.90;;;;;;5108247;27;19952;-95
2022/09/09 05:54:09;;;;;;;;;;;14.20;99.90;;;;;;5118267;27;19907;-95
2022/09/09 05:56:35;;;;;;;;;;;15.10;99.90;;;;;;5127337;27;19986;-94
2022/09/09 05:59:04;;;;;;;;;;;13.90;99.90;;;;;;5111961;27;19927;-92
2022/09/09 06:01:33;;;;;;;;;;;14.00;99.90;;;;;;5109975;27;19938;-92
2022/09/09 06:03:59;;;;;;;;;;;14.40;99.90;;;;;;5105872;27;20033;-93
2022/09/09 06:06:28;;;;;;;;;;;14.60;99.90;;;;;;5105940;27;20527;-92
2022/09/09 06:11:53;;;;;;;;;;;14.20;99.90;;;;;;5126795;27;19933;-94
2022/09/09 06:14:26;;;;;;;;;;;13.10;99.90;;;;;;5110086;27;19946;-94
2022/09/09 06:17:00;;;;;;;;;;;14.20;99.90;;;;;;5110738;27;19923;-94
2022/09/09 06:19:33;;;;;;;;;;;13.70;99.90;;;;;;5109463;27;20009;-94
2022/09/09 06:22:06;;;;;;;;;;;14.20;99.90;;;;;;5105856;27;19927;-94
2022/09/09 06:24:34;;;;;;;;;;;14.50;99.90;;;;;;5106545;27;19934;-95
2022/09/09 06:27:02;;;;;;;;;;;14.70;99.90;;;;;;5107212;27;19980;-95
2022/09/09 06:29:31;;;;;;;;;;;14.60;99.90;;;;;;5104868;27;19927;-94
2022/09/09 06:32:04;;;;;;;;;;;14.40;99.90;;;;;;5101882;27;20427;-92
2022/09/09 06:34:32;;;;;;;;;;;14.40;99.90;;;;;;5103643;27;20269;-93
2022/09/09 06:36:58;;;;;;;;;;;14.70;99.90;;;;;;5102397;27;20010;-92
2022/09/09 06:39:24;;;;;;;;;;;14.90;99.90;;;;;;5102208;27;19923;-93
2022/09/09 06:41:58;;;;;;;;;;;14.80;99.90;;;;;;5103085;27;19927;-94
2022/09/09 06:44:26;;;;;;;;;;;14.90;99.90;;;;;;5106083;27;19923;-94
2022/09/09 06:47:02;;;;;;;;;;;;;;;;;;;;;
2022/09/09 06:53:09;;;;;;;;;;;15.00;99.90;;;;;;5137596;27;20407;-92
2022/09/09 06:55:37;;;;;;;;;;;15.00;99.90;;;;;;5102353;27;19923;-91
2022/09/09 06:58:12;;;;;;;;;;;14.80;99.90;;;;;;5109178;27;19934;-93
2022/09/09 07:01:01;;;;;;;;;;;15.00;99.90;;;;;;5125171;27;19923;-92
2022/09/09 07:03:31;;;;;;;;;;;14.80;99.90;;;;;;5118388;27;20348;-92
2022/09/09 07:06:10;;;;;;;;;;;;;;;;;;;;;
2022/09/09 07:08:41;;;;;;;;;;;15.20;99.90;;;;;;5122435;27;20381;-93
2022/09/09 07:11:15;;;;;;;;;;;15.10;99.90;;;;;;5109274;27;19934;-94
2022/09/09 07:13:52;;;;;;;;;;;15.20;99.90;;;;;;5106645;27;20259;-92
2022/09/09 07:16:54;;;;;;;;;;;;;;;;;;;;;
2022/09/09 07:22:19;;;;;;;;;;;15.50;99.90;;;;;;5116791;27;20323;-90
2022/09/09 07:24:51;;;;;;;;;;;15.40;99.90;;;;;;5112706;27;19972;-93
2022/09/09 07:27:38;;;;;;;;;;;15.70;99.90;;;;;;5122901;27;19968;-95
2022/09/09 07:30:13;;;;;;;;;;;15.00;99.90;;;;;;5107834;27;19923;-93
2022/09/09 07:32:57;;;;;;;;;;;15.70;99.90;;;;;;5126706;27;19994;-94
2022/09/09 07:35:42;;;;;;;;;;;;;;;;;;;;;
2022/09/09 07:38:30;;;;;;;;;;;;;;;;;;;;;
2022/09/09 07:41:41;;;;;;;;;;;;;;;;;;;;;
2022/09/09 07:44:59;;;;;;;;;;;;;;;;;;;;;
2022/09/09 07:58:15;;;;;;;;;;;16.20;99.90;;;;;;5014944;28;20415;-91
2022/09/09 08:00:43;;;;;;;;;;;17.10;99.90;;;;;;5033704;28;19931;-90
2022/09/09 08:03:09;;;;;;;;;;;16.80;99.90;;;;;;5083227;27;19928;-88
2022/09/09 08:05:42;;;;;;;;;;;17.20;99.90;;;;;;5116635;27;20004;-90
2022/09/09 08:08:17;;;;;;;;;;;18.40;99.90;;;;;;5087398;27;19924;-88
2022/09/09 08:10:42;;;;;;;;;;;16.50;99.90;;;;;;5095543;27;20303;-88
2022/09/09 08:13:30;;;;;;;;;;;16.90;99.90;;;;;;5092168;27;19924;-93
2022/09/09 08:16:05;;;;;;;;;;;17.20;99.90;;;;;;5093154;27;20317;-93
2022/09/09 08:18:34;;;;;;;;;;;17.80;99.90;;;;;;5091838;27;19931;-91
2022/09/09 08:21:11;;;;;;;;;;;18.00;99.90;;;;;;5107161;27;19928;-91
2022/09/09 08:23:41;;;;;;;;;;;17.90;99.90;;;;;;5110633;27;20000;-93
2022/09/09 08:26:10;;;;;;;;;;;18.20;99.90;;;;;;5098637;27;19923;-90
2022/09/09 08:28:36;;;;;;;;;;;17.90;99.90;;;;;;5109520;27;20268;-93
2022/09/09 08:31:20;;;;;;;;;;;17.60;99.90;;;;;;5088824;27;19931;-94
2022/09/09 08:33:46;;;;;;;;;;;17.70;99.90;;;;;;5091987;27;20391;-91
2022/09/09 08:36:22;;;;;;;;;;;17.40;99.90;;;;;;5110281;27;19923;-93
2022/09/09 08:38:51;;;;;;;;;;;17.80;99.90;;;;;;5094523;27;20040;-93
2022/09/09 08:41:35;;;;;;;;;;;18.10;99.90;;;;;;5088929;28;20368;-91
2022/09/09 08:44:14;;;;;;;;;;;17.90;99.90;;;;;;5122475;27;19934;-90
2022/09/09 08:46:49;;;;;;;;;;;17.90;99.90;;;;;;5107417;27;20006;-91
2022/09/09 08:49:15;;;;;;;;;;;18.30;99.90;;;;;;5123940;27;19930;-92
2022/09/09 08:51:43;;;;;;;;;;;18.50;99.90;;;;;;5106152;27;20303;-93
2022/09/09 08:54:16;;;;;;;;;;;18.70;99.90;;;;;;5091857;27;19975;-94
2022/09/09 08:56:47;;;;;;;;;;;18.90;99.90;;;;;;5099911;27;20066;-94
2022/09/09 08:59:16;;;;;;;;;;;18.60;99.90;;;;;;5098428;27;19924;-93
2022/09/09 09:01:55;;;;;;;;;;;18.30;99.90;;;;;;5117358;27;19949;-94
2022/09/09 09:04:24;;;;;;;;;;;18.00;99.90;;;;;;5120653;27;20298;-93
2022/09/09 09:06:56;;;;;;;;;;;18.00;99.90;;;;;;5120806;27;19931;-93
2022/09/09 09:10:11;;;;;;;;;;;;;;;;;;;;;
2022/09/09 09:12:29;;;;;;;;;;;17.50;99.90;;;;;;5121743;27;19924;-91
2022/09/09 09:14:58;;;;;;;;;;;17.60;99.90;;;;;;5122595;27;19973;-95
2022/09/09 09:17:29;;;;;;;;;;;17.80;99.90;;;;;;5120962;27;19933;-93
2022/09/09 09:19:55;;;;;;;;;;;18.40;99.90;;;;;;5108008;27;19924;-96
2022/09/09 09:22:35;;;;;;;;;;;;;;;;;;;;;
2022/09/09 09:25:26;;;;;;;;;;;21.00;99.90;;;;;;5128070;27;19923;-94
2022/09/09 09:28:17;;;;;;;;;;;20.80;99.90;;;;;;5139085;27;19914;-91
2022/09/09 09:30:49;;;;;;;;;;;20.40;99.90;;;;;;5156795;27;19912;-94
2022/09/09 09:33:39;;;;;;;;;;;19.40;99.90;;;;;;5137335;27;19923;-94
2022/09/09 09:36:15;;;;;;;;;;;19.20;99.90;;;;;;5138174;27;19949;-95
2022/09/09 09:38:57;;;;;;;;;;;18.80;99.90;;;;;;5112782;27;19924;-92
2022/09/09 09:42:02;;;;;;;;;;;;;;;;;;;;;
2022/09/09 09:44:37;;;;;;;;;;;18.40;99.90;;;;;;5117006;27;19934;-95
2022/09/09 09:47:10;;;;;;;;;;;18.20;99.90;;;;;;5110865;27;19975;-93
2022/09/09 09:49:38;;;;;;;;;;;19.20;99.90;;;;;;5113278;27;19945;-93
2022/09/09 09:52:12;;;;;;;;;;;18.20;99.90;;;;;;5107798;28;19924;-93
2022/09/09 09:54:41;;;;;;;;;;;18.00;99.90;;;;;;5159341;27;19919;-94
2022/09/09 09:57:16;;;;;;;;;;;18.40;99.90;;;;;;5141572;27;19986;-92
2022/09/09 09:59:42;;;;;;;;;;;18.60;99.90;;;;;;5107345;27;19953;-93
2022/09/09 10:02:25;;;;;;;;;;;18.70;99.90;;;;;;5102535;27;19923;-92
2022/09/09 10:05:03;;;;;;;;;;;19.10;99.90;;;;;;5121100;27;20363;-94
2022/09/09 10:07:38;;;;;;;;;;;18.60;99.90;;;;;;5120200;27;19927;-94
2022/09/09 10:10:07;;;;;;;;;;;19.00;99.90;;;;;;5134612;27;19927;-95
2022/09/09 10:12:48;;;;;;;;;;;18.60;99.90;;;;;;5119094;27;19923;-90
2022/09/09 10:15:20;;;;;;;;;;;18.70;99.90;;;;;;5129953;27;19948;-92
2022/09/09 10:17:59;;;;;;;;;;;18.70;99.90;;;;;;5102038;27;20022;-90
2022/09/09 10:20:34;;;;;;;;;;;18.80;99.90;;;;;;5118548;27;19930;-90
2022/09/09 10:23:26;;;;;;;;;;;19.10;99.90;;;;;;5119336;27;19931;-86
2022/09/09 10:26:13;;;;;;;;;;;18.80;99.90;;;;;;5126006;27;19948;-89
2022/09/09 10:28:45;;;;;;;;;;;18.10;99.90;;;;;;5135476;27;19923;-89
2022/09/09 10:31:15;;;;;;;;;;;19.70;99.90;;;;;;5134998;27;19972;-87
2022/09/09 10:33:50;;;;;;;;;;;20.10;99.90;;;;;;5118560;27;20022;-87
2022/09/09 10:36:21;;;;;;;;;;;20.30;99.90;;;;;;5135037;27;19927;-91
2022/09/09 10:38:47;;;;;;;;;;;20.50;99.90;;;;;;5136189;27;19923;-89
2022/09/09 10:41:16;;;;;;;;;;;20.40;99.90;;;;;;5118566;27;20038;-89
2022/09/09 10:43:41;;;;;;;;;;;20.50;99.90;;;;;;5119214;27;19923;-87
2022/09/09 10:46:14;;;;;;;;;;;20.90;99.90;;;;;;5118819;27;19923;-88
2022/09/09 10:48:45;;;;;;;;;;;21.00;99.90;;;;;;5119419;27;19929;-88
2022/09/09 10:51:20;;;;;;;;;;;21.40;99.90;;;;;;5138532;27;19934;-88
2022/09/09 10:53:46;;;;;;;;;;;21.20;99.90;;;;;;5129881;27;19966;-88
2022/09/09 10:56:13;;;;;;;;;;;20.70;99.90;;;;;;5135699;27;19965;-88
2022/09/09 10:58:48;;;;;;;;;;;20.30;99.90;;;;;;5135292;27;19923;-87
2022/09/09 11:01:17;;;;;;;;;;;20.30;99.90;;;;;;5135786;27;19923;-89
2022/09/09 11:03:43;;;;;;;;;;;20.60;99.90;;;;;;5137710;27;19923;-88
2022/09/09 11:06:16;;;;;;;;;;;21.40;99.90;;;;;;5106272;27;19950;-90
2022/09/09 11:08:44;;;;;;;;;;;21.90;99.90;;;;;;5145132;27;19975;-91
2022/09/09 11:11:21;;;;;;;;;;;22.30;99.90;;;;;;5106682;27;20370;-89
2022/09/09 11:13:58;;;;;;;;;;;20.70;99.90;;;;;;5130550;27;20678;-91
2022/09/09 11:16:34;;;;;;;;;;;20.40;99.90;;;;;;5123313;27;19923;-89
2022/09/09 11:19:02;;;;;;;;;;;20.40;99.90;;;;;;5114501;27;20370;-91
2022/09/09 11:21:56;;;;;;;;;;;20.30;99.90;;;;;;5156604;27;19927;-92
2022/09/09 11:24:29;;;;;;;;;;;19.40;99.90;;;;;;5107273;27;19923;-91
2022/09/09 11:27:14;;;;;;;;;;;20.70;99.90;;;;;;5122629;27;19976;-89
2022/09/09 11:29:44;;;;;;;;;;;20.80;99.90;;;;;;5125871;27;19923;-89
2022/09/09 11:32:31;;;;;;;;;;;20.90;99.90;;;;;;5122426;27;20382;-89
2022/09/09 11:35:00;;;;;;;;;;;21.00;99.90;;;;;;5142565;27;19927;-89
2022/09/09 11:37:29;;;;;;;;;;;21.20;99.90;;;;;;5139145;27;19926;-89
2022/09/09 11:40:10;;;;;;;;;;;21.40;99.90;;;;;;5140411;27;19973;-89
2022/09/09 11:42:35;;;;;;;;;;;21.20;99.90;;;;;;5122678;27;19979;-88
2022/09/09 11:45:11;;;;;;;;;;;20.80;99.90;;;;;;5105594;27;19981;-89
2022/09/09 11:47:39;;;;;;;;;;;20.80;99.90;;;;;;5122096;27;20265;-89
2022/09/09 11:50:14;;;;;;;;;;;20.60;99.90;;;;;;5122350;27;19949;-88
2022/09/09 11:52:42;;;;;;;;;;;20.50;99.90;;;;;;5139186;27;19931;-88
2022/09/09 11:55:09;;;;;;;;;;;20.40;99.90;;;;;;5110069;27;20235;-88
2022/09/09 11:57:35;;;;;;;;;;;20.90;99.90;;;;;;5113441;27;19927;-90
2022/09/09 12:00:01;;;;;;;;;;;21.20;99.90;;;;;;5126132;27;20378;-90
2022/09/09 12:02:27;;;;;;;;;;;20.80;99.90;;;;;;5106846;27;19976;-87
2022/09/09 12:05:20;;;;;;;;;;;20.90;99.90;;;;;;5138274;27;19927;-90
2022/09/09 12:07:48;;;;;;;;;;;21.00;99.90;;;;;;5135078;27;19930;-90
2022/09/09 12:10:25;;;;;;;;;;;20.80;99.90;;;;;;5124192;27;20332;-89
2022/09/09 12:12:52;;;;;;;;;;;21.20;99.90;;;;;;5122440;27;19938;-90
2022/09/09 12:15:20;;;;;;;;;;;21.10;99.90;;;;;;5122344;27;19923;-89
2022/09/09 12:17:50;;;;;;;;;;;21.30;99.90;;;;;;5121963;27;20423;-88
2022/09/09 12:20:17;;;;;;;;;;;21.10;99.90;;;;;;5120497;27;19934;-87
2022/09/09 12:23:01;;;;;;;;;;;21.20;99.90;;;;;;5120684;27;19923;-86
2022/09/09 12:25:47;;;;;;;;;;;20.30;99.90;;;;;;5138163;27;20430;-87
2022/09/09 12:28:18;;;;;;;;;;;21.10;99.90;;;;;;5120122;27;19934;-88
2022/09/09 12:30:52;;;;;;;;;;;21.20;99.90;;;;;;5121522;27;19923;-87
2022/09/09 12:33:18;;;;;;;;;;;21.20;99.90;;;;;;5137575;27;19930;-87
2022/09/09 12:35:48;;;;;;;;;;;21.10;99.90;;;;;;5120727;27;19927;-88
2022/09/09 12:38:15;;;;;;;;;;;21.10;99.90;;;;;;5138395;27;19930;-88
2022/09/09 12:40:43;;;;;;;;;;;20.70;99.90;;;;;;5137704;27;20007;-88
2022/09/09 12:43:16;;;;;;;;;;;20.90;99.90;;;;;;5121506;27;20298;-86
2022/09/09 12:45:42;;;;;;;;;;;21.30;99.90;;;;;;5137154;27;19923;-86
2022/09/09 12:48:15;;;;;;;;;;;21.30;99.90;;;;;;5121379;27;19930;-86
2022/09/09 12:50:51;;;;;;;;;;;21.40;99.90;;;;;;5121910;27;19934;-87
2022/09/09 12:53:26;;;;;;;;;;;21.30;99.90;;;;;;5136852;27;20396;-90
2022/09/09 12:55:52;;;;;;;;;;;21.30;99.90;;;;;;5137398;27;19934;-88
2022/09/09 12:58:20;;;;;;;;;;;21.40;99.90;;;;;;5137740;27;20009;-89
2022/09/09 13:00:50;;;;;;;;;;;21.30;99.90;;;;;;5104299;27;20055;-89
2022/09/09 13:03:17;;;;;;;;;;;21.40;99.90;;;;;;5108358;27;20409;-87
2022/09/09 13:05:42;;;;;;;;;;;21.60;99.90;;;;;;5131863;27;19923;-86
2022/09/09 13:08:09;;;;;;;;;;;21.50;99.90;;;;;;5123684;27;19944;-88
2022/09/09 13:10:38;;;;;;;;;;;21.90;99.90;;;;;;5124938;27;20014;-90
2022/09/09 13:13:14;;;;;;;;;;;21.60;99.90;;;;;;5138460;27;19927;-88
2022/09/09 13:15:39;;;;;;;;;;;21.40;99.90;;;;;;5126206;27;19923;-89
2022/09/09 13:18:06;;;;;;;;;;;21.40;99.90;;;;;;5142098;27;19931;-87
2022/09/09 13:20:32;;;;;;;;;;;21.40;99.90;;;;;;5124635;27;19923;-90
2022/09/09 13:22:58;;;;;;;;;;;20.90;99.90;;;;;;5129243;27;20371;-89
2022/09/09 13:25:27;;;;;;;;;;;21.10;99.90;;;;;;5105685;27;20386;-90
2022/09/09 13:27:55;;;;;;;;;;;20.80;99.90;;;;;;5120074;27;20281;-91
2022/09/09 13:30:23;;;;;;;;;;;20.90;99.90;;;;;;5107100;27;19962;-88
2022/09/09 13:33:08;;;;;;;;;;;20.60;99.90;;;;;;5118416;27;19923;-88
2022/09/09 13:35:36;;;;;;;;;;;20.30;99.90;;;;;;5136129;27;19991;-90
2022/09/09 13:38:09;;;;;;;;;;;21.40;99.90;;;;;;5119996;27;20350;-87
2022/09/09 13:40:34;;;;;;;;;;;19.70;99.90;;;;;;5119047;27;19924;-89
2022/09/09 13:43:02;;;;;;;;;;;19.70;99.90;;;;;;5136745;27;19945;-88
2022/09/09 13:45:27;;;;;;;;;;;19.60;99.90;;;;;;5119813;27;19923;-89
2022/09/09 13:47:55;;;;;;;;;;;19.50;99.90;;;;;;5154901;27;19934;-92
2022/09/09 13:50:20;;;;;;;;;;;19.80;99.90;;;;;;5119524;27;20005;-89
2022/09/09 13:52:57;;;;;;;;;;;20.10;99.90;;;;;;5121761;27;20002;-90
2022/09/09 13:55:24;;;;;;;;;;;20.50;99.90;;;;;;5125110;27;19974;-87
2022/09/09 13:57:56;;;;;;;;;;;20.80;99.90;;;;;;5124771;27;20367;-90
2022/09/09 14:00:22;;;;;;;;;;;21.20;99.90;;;;;;5121683;27;19931;-90
2022/09/09 14:02:50;;;;;;;;;;;21.40;99.90;;;;;;5121287;27;19930;-89
2022/09/09 14:05:16;;;;;;;;;;;21.50;99.90;;;;;;5111415;27;19927;-87
2022/09/09 14:07:42;;;;;;;;;;;21.40;99.90;;;;;;5136320;27;20391;-90
2022/09/09 14:10:08;;;;;;;;;;;21.30;99.90;;;;;;5124847;27;19930;-91
2022/09/09 14:12:36;;;;;;;;;;;21.20;99.90;;;;;;5119422;27;20393;-91
2022/09/09 14:15:03;;;;;;;;;;;22.50;99.90;;;;;;5107694;27;19923;-89
2022/09/09 14:17:30;;;;;;;;;;;20.80;99.90;;;;;;5131357;27;20389;-91
2022/09/09 14:19:58;;;;;;;;;;;20.80;99.90;;;;;;5122518;27;20320;-91
2022/09/09 14:22:26;;;;;;;;;;;20.80;99.90;;;;;;5123632;27;19933;-90
2022/09/09 14:24:51;;;;;;;;;;;21.20;99.90;;;;;;5136310;27;19977;-89
2022/09/09 14:27:20;;;;;;;;;;;21.10;99.90;;;;;;5137081;27;20018;-90
2022/09/09 14:29:45;;;;;;;;;;;21.10;99.90;;;;;;5136181;27;20425;-88
2022/09/09 14:32:11;;;;;;;;;;;21.30;99.90;;;;;;5136431;27;19927;-90
2022/09/09 14:34:37;;;;;;;;;;;21.10;99.90;;;;;;5119208;27;19923;-87
2022/09/09 14:37:02;;;;;;;;;;;21.30;99.90;;;;;;5154226;27;19986;-92
2022/09/09 14:39:28;;;;;;;;;;;21.20;99.90;;;;;;5120514;27;19923;-90
2022/09/09 14:41:53;;;;;;;;;;;21.40;99.90;;;;;;5136834;27;19934;-86
2022/09/09 14:44:19;;;;;;;;;;;21.40;99.90;;;;;;5135704;27;20306;-89
2022/09/09 14:46:45;;;;;;;;;;;21.10;99.90;;;;;;5136804;27;19927;-89
2022/09/09 14:49:10;;;;;;;;;;;21.20;99.90;;;;;;5103644;27;20331;-90
2022/09/09 14:51:36;;;;;;;;;;;20.90;99.90;;;;;;5118425;27;19927;-89
2022/09/09 14:54:06;;;;;;;;;;;20.80;99.90;;;;;;5101968;27;20340;-89
2022/09/09 14:56:34;;;;;;;;;;;20.60;99.90;;;;;;5136296;27;19979;-89
2022/09/09 14:59:00;;;;;;;;;;;20.20;99.90;;;;;;5154442;27;19930;-91
2022/09/09 15:01:27;;;;;;;;;;;19.90;99.90;;;;;;5120027;27;19923;-90
2022/09/09 15:03:53;;;;;;;;;;;18.60;99.90;;;;;;5134717;27;19923;-90
2022/09/09 15:06:19;;;;;;;;;;;20.10;99.90;;;;;;5135478;27;19974;-90
2022/09/09 15:08:44;;;;;;;;;;;21.10;99.90;;;;;;5116734;27;20405;-89